Time;durP1;ratioP1;P1;durP2;ratioP2;P2;SDS_P1;SDS_P2;PMS_P1;PMS_P2;Temp;Humidity;BMP_temperature;BMP_pressure;BME280_temperature;BME280_humidity;BME280_pressure;Samples;Min_cycle;Max_cycle;Signal;HPM_P1;HPM_P2
2021/11/20 00:01:06;;;;;;;2.17;1.15;;;19.90;48.30;;;23.68;32.47;102141.44;5094372;28;20579;-43
2021/11/20 00:03:33;;;;;;;2.40;1.15;;;19.90;48.30;;;23.66;32.28;102131.81;5094644;28;20051;-44
2021/11/20 00:06:00;;;;;;;1.58;1.00;;;19.90;48.30;;;23.68;32.25;102137.91;5094627;28;20458;-48
2021/11/20 00:08:26;;;;;;;2.42;1.08;;;19.90;48.30;;;23.67;32.37;102133.50;5094121;28;20563;-43
2021/11/20 00:11:00;;;;;;;1.95;1.05;;;19.90;48.30;;;23.65;32.36;102132.75;5094141;28;20130;-42
2021/11/20 00:13:26;;;;;;;2.35;1.00;;;19.90;48.30;;;23.65;32.33;102135.41;5094504;28;20040;-46
2021/11/20 00:15:58;;;;;;;1.63;1.02;;;19.90;48.30;;;23.62;32.48;102124.88;5094393;28;20067;-43
2021/11/20 00:18:24;;;;;;;1.85;1.30;;;19.90;48.30;;;23.68;32.43;102129.91;5093860;28;20052;-44
2021/11/20 00:20:55;;;;;;;1.85;1.17;;;19.90;48.30;;;23.65;32.35;102127.41;5093974;28;20044;-43
2021/11/20 00:23:32;;;;;;;;;;;19.90;48.40;;;23.78;32.02;102123.13;5094681;28;20392;-47
2021/11/20 00:25:59;;;;;;;2.05;1.00;;;19.90;48.40;;;23.70;32.17;102125.34;5094008;28;19920;-44
2021/11/20 00:28:41;;;;;;;1.95;1.10;;;19.90;48.30;;;23.68;32.28;102127.25;5093676;28;20502;-46
2021/11/20 00:31:13;;;;;;;3.28;1.10;;;19.90;48.30;;;23.64;32.35;102118.53;5092428;28;20122;-44
2021/11/20 00:33:39;;;;;;;2.47;0.90;;;19.90;48.30;;;23.65;32.29;102119.38;5059514;28;20067;-44
2021/11/20 00:36:08;;;;;;;1.73;0.90;;;19.90;48.30;;;23.61;32.28;102121.38;5058214;28;20048;-44
2021/11/20 00:38:36;;;;;;;2.00;1.20;;;19.90;48.30;;;23.64;32.61;102123.88;5093613;28;20484;-40
2021/11/20 00:41:07;;;;;;;1.10;0.90;;;19.90;48.30;;;23.63;32.30;102121.28;5093749;28;20040;-46
2021/11/20 00:43:35;;;;;;;1.63;1.10;;;19.90;48.40;;;23.60;32.43;102110.75;5093850;28;20368;-43
2021/11/20 00:46:02;;;;;;;1.98;1.13;;;19.90;48.40;;;23.61;32.28;102109.84;5093618;28;20492;-44
2021/11/20 00:48:28;;;;;;;3.55;1.30;;;19.90;48.40;;;23.60;32.38;102110.75;5093441;28;20120;-44
2021/11/20 00:51:02;;;;;;;1.17;1.08;;;19.80;48.40;;;23.59;32.50;102117.03;5075323;28;20472;-43
2021/11/20 00:53:30;;;;;;;2.65;1.10;;;19.80;48.40;;;23.60;32.75;102108.09;5093657;28;20488;-45
2021/11/20 00:55:57;;;;;;;1.30;1.17;;;19.80;48.90;;;23.59;32.65;102112.59;5093524;28;20059;-46
2021/11/20 00:58:24;;;;;;;2.45;1.33;;;19.90;48.40;;;23.61;32.35;102116.03;5075014;28;20472;-43
2021/11/20 01:00:57;;;;;;;2.22;1.10;;;19.80;48.40;;;23.60;32.37;102119.63;5093459;28;20051;-43
2021/11/20 01:03:26;;;;;;;1.10;0.90;;;19.80;48.30;;;23.61;32.32;102115.16;5075210;28;20552;-45
2021/11/20 01:05:54;;;;;;;1.50;0.90;;;19.80;48.40;;;23.61;32.41;102116.03;5075133;28;20052;-43
2021/11/20 01:08:35;;;;;;;3.83;1.30;;;19.80;48.40;;;23.59;32.43;102119.72;5075010;28;20480;-44
2021/11/20 01:11:14;;;;;;;2.53;1.10;;;19.80;48.40;;;23.59;32.51;102120.59;5075573;28;20036;-46
2021/11/20 01:13:40;;;;;;;3.13;1.10;;;19.80;48.40;;;23.60;32.49;102105.44;5074941;28;20056;-43
2021/11/20 01:16:10;;;;;;;1.67;1.20;;;19.80;48.40;;;23.60;32.53;102114.28;5074886;28;20036;-43
2021/11/20 01:18:38;;;;;;;1.67;1.23;;;19.80;48.40;;;23.60;32.30;102111.63;5092971;28;20048;-43
2021/11/20 01:21:24;;;;;;;1.88;1.23;;;19.80;48.40;;;23.59;32.34;102115.25;5073167;28;20377;-45
2021/11/20 01:23:52;;;;;;;2.65;1.13;;;19.80;48.40;;;23.54;32.43;102105.75;5074866;28;20044;-46
2021/11/20 01:26:20;;;;;;;2.22;1.10;;;19.80;48.40;;;23.57;32.68;102113.59;5075257;28;20455;-43
2021/11/20 01:28:56;;;;;;;2.95;1.00;;;19.80;48.40;;;23.57;32.38;102108.25;5073654;28;20040;-44
2021/11/20 01:31:55;;;;;;;2.58;1.17;;;19.80;48.40;;;23.56;32.65;102106.56;5068452;28;20150;-46
2021/11/20 01:34:24;;;;;;;1.38;1.20;;;19.80;48.40;;;23.55;32.63;102096.81;5093030;28;20051;-45
2021/11/20 01:36:53;;;;;;;1.65;0.90;;;19.80;48.40;;;23.53;32.52;102096.03;5092957;28;20047;-50
2021/11/20 01:39:28;;;;;;;2.85;1.10;;;19.80;48.40;;;23.57;32.44;102110.91;5074407;28;20044;-44
2021/11/20 01:42:23;;;;;;;1.23;0.95;;;19.80;48.40;;;23.54;32.55;102097.72;5092662;28;20052;-43
2021/11/20 01:45:35;;;;;;;2.05;1.25;;;19.80;48.40;;;23.54;32.64;102097.72;5075069;28;20036;-44
2021/11/20 01:48:49;;;;;;;1.98;1.00;;;19.80;48.40;;;23.58;32.41;102097.50;5073598;28;20048;-47
2021/11/20 01:51:29;;;;;;;1.30;0.80;;;19.80;48.40;;;23.54;32.26;102092.41;5073437;28;20488;-44
2021/11/20 01:54:43;;;;;;;2.05;1.30;;;19.70;48.40;;;23.56;32.39;102095.88;5091350;28;20484;-46
2021/11/20 01:57:38;;;;;;;2.50;1.35;;;19.80;48.50;;;23.54;32.58;102097.72;5074760;28;20052;-45
2021/11/20 02:00:04;;;;;;;2.42;1.13;;;19.80;49.00;;;23.54;32.60;102095.06;5074436;28;20048;-45
2021/11/20 02:03:03;;;;;;;1.30;0.90;;;19.80;48.40;;;23.52;32.56;102096.97;5092708;28;20077;-46
2021/11/20 02:06:00;;;;;;;1.20;1.00;;;19.80;48.40;;;23.50;32.67;102091.69;5074476;28;20059;-44
2021/11/20 02:09:07;;;;;;;1.27;1.00;;;19.80;48.50;;;23.49;32.75;102093.53;5074117;28;20403;-45
2021/11/20 02:12:03;;;;;;;1.45;0.98;;;19.70;48.40;;;23.52;32.63;102099.63;5074246;28;20457;-48
2021/11/20 02:14:30;;;;;;;1.20;0.85;;;19.70;48.40;;;23.49;32.72;102082.00;5074101;28;20097;-47
2021/11/20 02:17:16;;;;;;;2.33;0.90;;;19.80;48.50;;;23.50;32.68;102083.69;5072137;28;20044;-48
2021/11/20 02:19:51;;;;;;;2.88;1.45;;;19.80;48.50;;;23.50;32.58;102089.03;5072324;28;20052;-50
2021/11/20 02:22:39;;;;;;;2.45;1.13;;;19.70;48.50;;;23.49;32.55;102090.00;5056376;28;20051;-50
2021/11/20 02:25:11;;;;;;;2.10;1.30;;;19.80;48.50;;;23.50;32.59;102075.69;5074368;28;20388;-49
2021/11/20 02:27:57;;;;;;;0.90;0.77;;;19.80;48.50;;;23.49;32.51;102085.50;5092555;28;20101;-50
2021/11/20 02:30:35;;;;;;;1.23;0.93;;;19.70;48.40;;;23.48;32.55;102081.09;5073974;28;20055;-47
2021/11/20 02:33:14;;;;;;;1.15;0.98;;;19.70;48.40;;;23.47;32.66;102076.72;5073146;28;20049;-47
2021/11/20 02:36:03;;;;;;;1.73;1.17;;;19.70;48.40;;;23.47;32.46;102079.41;5074610;28;20066;-49
2021/11/20 02:39:05;;;;;;;1.30;1.02;;;19.70;48.50;;;23.48;32.42;102067.75;5071657;28;20048;-48
2021/11/20 02:41:35;;;;;;;1.88;1.10;;;19.70;48.50;;;23.49;32.66;102066.81;5071568;28;20496;-49
2021/11/20 02:44:04;;;;;;;1.55;0.90;;;19.70;48.50;;;23.46;32.50;102077.66;5073868;28;20048;-47
2021/11/20 02:46:36;;;;;;;2.70;1.10;;;19.70;48.50;;;23.48;32.71;102077.59;5074044;28;20044;-45
2021/11/20 02:49:06;;;;;;;2.28;0.90;;;19.70;48.50;;;23.47;32.66;102075.84;5089206;28;20395;-46
2021/11/20 02:51:37;;;;;;;1.77;1.02;;;19.70;48.50;;;23.45;32.54;102062.56;5073739;28;20506;-43
2021/11/20 02:54:24;;;;;;;1.48;0.90;;;19.70;48.50;;;23.48;32.72;102056.22;5092475;28;20052;-43
2021/11/20 02:57:09;;;;;;;1.88;1.05;;;19.70;48.50;;;23.48;32.67;102065.09;5072170;28;20055;-41
2021/11/20 02:59:36;;;;;;;1.55;0.95;;;19.70;48.50;;;23.46;32.50;102061.66;5075440;28;20397;-43
2021/11/20 03:02:04;;;;;;;2.10;1.08;;;19.70;48.50;;;23.46;32.71;102061.66;5077141;28;20055;-44
2021/11/20 03:04:30;;;;;;;1.85;0.90;;;19.70;48.50;;;23.45;32.71;102053.72;5076952;28;20480;-46
2021/11/20 03:06:58;;;;;;;1.73;1.13;;;19.70;48.50;;;23.45;32.62;102051.03;5095386;28;20139;-43
2021/11/20 03:09:29;;;;;;;3.20;1.20;;;19.80;48.50;;;23.44;32.69;102046.66;5077521;28;20396;-43
2021/11/20 03:12:03;;;;;;;2.78;1.20;;;19.70;48.50;;;23.47;32.72;102051.81;5095230;28;20077;-46
2021/11/20 03:14:31;;;;;;;1.40;1.00;;;19.70;48.50;;;23.48;32.56;102050.88;5077379;28;20071;-50
2021/11/20 03:17:01;;;;;;;1.83;1.10;;;19.70;48.50;;;23.47;32.48;102043.81;5076758;28;20134;-43
2021/11/20 03:19:34;;;;;;;1.05;0.75;;;19.70;49.10;;;23.43;32.82;102042.25;5075903;28;20044;-43
2021/11/20 03:22:13;;;;;;;1.70;1.05;;;19.70;48.50;;;23.43;32.76;102048.47;5077401;28;20048;-42
2021/11/20 03:24:40;;;;;;;1.92;1.10;;;19.70;48.50;;;23.47;32.68;102047.38;5077277;28;20058;-45
2021/11/20 03:27:06;;;;;;;1.10;1.00;;;19.70;48.50;;;23.44;32.69;102042.19;5094992;28;20135;-43
2021/11/20 03:29:35;;;;;;;0.73;0.73;;;19.70;48.50;;;23.45;32.73;102035.88;5094843;28;20491;-44
2021/11/20 03:32:04;;;;;;;1.50;1.00;;;19.70;48.50;;;23.42;32.68;102029.84;5095058;28;20164;-47
2021/11/20 03:34:33;;;;;;;1.27;0.90;;;19.70;48.50;;;23.42;32.70;102036.06;5076500;28;20059;-46
2021/11/20 03:37:00;;;;;;;1.25;0.90;;;19.70;48.50;;;23.44;32.66;102033.31;5076748;28;20068;-46
2021/11/20 03:39:33;;;;;;;1.38;0.98;;;19.70;48.50;;;23.42;32.56;102036.06;5076446;28;20083;-47
2021/11/20 03:42:01;;;;;;;2.10;1.13;;;19.70;48.50;;;23.42;32.49;102035.19;5076702;28;20040;-44
2021/11/20 03:44:27;;;;;;;1.35;0.70;;;19.70;48.50;;;23.42;32.53;102033.41;5076930;28;20055;-44
2021/11/20 03:46:57;;;;;;;1.55;0.90;;;19.70;48.50;;;23.43;32.80;102048.47;5076376;28;20059;-48
2021/11/20 03:49:28;;;;;;;0.80;0.75;;;19.70;48.50;;;23.38;32.76;102033.66;5076264;28;20058;-44
2021/11/20 03:51:54;;;;;;;1.10;1.00;;;19.70;48.50;;;23.44;32.52;102042.19;5094533;28;20481;-44
2021/11/20 03:54:23;;;;;;;1.33;1.10;;;19.70;48.50;;;23.42;32.60;102044.09;5076369;28;20062;-48
2021/11/20 03:56:49;;;;;;;0.88;0.80;;;19.70;48.50;;;23.41;32.56;102030.81;5075805;28;20055;-43
2021/11/20 03:59:17;;;;;;;1.65;1.30;;;19.70;48.50;;;23.44;32.49;102030.66;5076140;28;20086;-45
2021/11/20 04:01:45;;;;;;;2.28;0.93;;;19.70;48.50;;;23.40;32.72;102027.25;5076040;28;20407;-48
2021/11/20 04:04:12;;;;;;;1.30;0.90;;;19.70;48.50;;;23.40;32.65;102026.41;5076163;28;20181;-43
2021/11/20 04:06:41;;;;;;;2.65;1.48;;;19.70;48.50;;;23.42;32.72;102036.06;5076112;28;20502;-43
2021/11/20 04:09:12;;;;;;;1.15;0.90;;;19.70;48.50;;;23.41;32.49;102025.47;5075867;28;20143;-45
2021/11/20 04:11:44;;;;;;;1.00;0.90;;;19.70;48.50;;;23.42;32.66;102030.75;5076695;28;20116;-44
2021/11/20 04:14:11;;;;;;;0.90;0.80;;;19.70;48.50;;;23.42;32.72;102027.19;5076021;28;20135;-44
2021/11/20 04:16:40;;;;;;;1.20;0.88;;;19.70;48.50;;;23.42;32.62;102025.41;5094242;28;20047;-44
2021/11/20 04:19:06;;;;;;;1.40;0.90;;;19.70;48.50;;;23.39;32.66;102017.56;5093924;28;20097;-43
2021/11/20 04:21:34;;;;;;;1.83;1.10;;;19.70;48.50;;;23.41;32.75;102018.31;5076163;28;20051;-42
2021/11/20 04:24:00;;;;;;;0.95;0.90;;;19.70;48.50;;;23.40;32.48;102013.91;5075869;28;20040;-44
2021/11/20 04:26:50;;;;;;;1.10;1.00;;;19.70;48.50;;;23.41;32.55;102012.13;5093696;28;20048;-46
2021/11/20 04:29:17;;;;;;;1.23;0.80;;;19.70;48.50;;;23.42;32.75;102008.50;5092829;28;20048;-45
2021/11/20 04:31:44;;;;;;;1.50;0.93;;;19.70;48.50;;;23.43;32.67;102007.56;5074110;28;20049;-45
2021/11/20 04:34:12;;;;;;;1.27;0.80;;;19.70;48.50;;;23.42;32.77;102003.16;5075719;28;20048;-45
2021/11/20 04:36:38;;;;;;;1.88;1.10;;;19.70;48.50;;;23.39;32.79;101998.88;5092504;28;20083;-44
2021/11/20 04:39:08;;;;;;;1.30;0.98;;;19.70;48.50;;;23.42;32.66;101997.81;5075764;28;20098;-43
2021/11/20 04:41:35;;;;;;;2.25;1.10;;;19.70;48.40;;;23.41;32.74;102001.47;5075765;28;20052;-43
2021/11/20 04:44:02;;;;;;;1.50;0.95;;;19.70;48.40;;;23.44;32.59;101998.63;5074250;28;20377;-42
2021/11/20 04:46:28;;;;;;;0.98;0.77;;;19.80;48.40;;;23.46;32.58;102004.75;5073647;28;20045;-42
2021/11/20 04:48:54;;;;;;;1.65;0.80;;;19.80;48.30;;;23.48;32.75;102006.34;5093526;28;20124;-44
2021/11/20 04:51:23;;;;;;;1.23;0.80;;;19.80;48.20;;;23.49;32.79;102000.09;5093834;28;20054;-44
2021/11/20 04:53:50;;;;;;;1.15;0.90;;;19.80;48.10;;;23.46;32.57;101991.38;5075212;28;20048;-44
2021/11/20 04:56:21;;;;;;;2.13;1.00;;;19.90;48.10;;;23.47;32.59;101988.63;5075358;28;20055;-42
2021/11/20 04:58:47;;;;;;;1.53;1.00;;;19.90;48.00;;;23.53;32.57;101978.56;5072102;28;20480;-43
2021/11/20 05:01:14;;;;;;;1.05;0.88;;;19.90;47.90;;;23.56;32.55;101981.91;5093502;28;20097;-45
2021/11/20 05:03:43;;;;;;;1.10;0.82;;;20.00;47.90;;;23.56;32.41;101981.06;5075749;28;20051;-44
2021/11/20 05:06:11;;;;;;;0.80;0.80;;;20.00;47.90;;;23.58;32.61;101981.84;5075400;28;20040;-43
2021/11/20 05:08:38;;;;;;;1.08;0.80;;;20.00;47.80;;;23.63;32.33;101979.78;5091203;28;20106;-45
2021/11/20 05:11:07;;;;;;;1.15;1.05;;;20.10;47.70;;;23.64;32.46;101977.03;5093186;28;20052;-43
2021/11/20 05:13:43;;;;;;;0.73;0.73;;;20.10;47.60;;;23.68;32.57;101978.56;5075045;28;20048;-43
2021/11/20 05:16:10;;;;;;;1.98;1.02;;;20.20;47.60;;;23.70;32.46;101983.81;5074961;28;20040;-45
2021/11/20 05:18:38;;;;;;;1.02;0.88;;;20.10;47.50;;;23.74;32.24;101984.50;5073613;28;20036;-42
2021/11/20 05:21:08;;;;;;;1.17;0.90;;;20.20;47.40;;;23.75;32.49;101976.41;5074284;28;20413;-44
2021/11/20 05:23:36;;;;;;;1.13;0.85;;;20.20;47.30;;;23.78;32.35;101978.06;5092989;28;20051;-45
2021/11/20 05:26:08;;;;;;;0.98;0.80;;;20.30;47.30;;;23.77;32.46;101971.88;5074897;28;20052;-43
2021/11/20 05:28:35;;;;;;;0.88;0.82;;;20.30;47.30;;;23.81;32.42;101967.22;5074884;28;20051;-47
2021/11/20 05:31:03;;;;;;;0.93;0.80;;;20.30;47.20;;;23.86;32.18;101978.53;5072798;28;20515;-43
2021/11/20 05:33:43;;;;;;;1.42;1.10;;;20.30;47.10;;;23.88;32.19;101973.09;5074724;28;20491;-43
2021/11/20 05:36:14;;;;;;;1.10;0.90;;;20.40;47.10;;;23.86;32.19;101962.50;5074639;28;20051;-43
2021/11/20 05:38:42;;;;;;;1.25;1.00;;;20.40;47.00;;;23.93;32.01;101963.84;5091377;28;20507;-43
2021/11/20 05:41:09;;;;;;;0.70;0.63;;;20.40;46.90;;;23.94;32.28;101970.94;5074673;28;20044;-46
2021/11/20 05:43:47;;;;;;;0.63;0.60;;;20.50;46.90;;;23.95;32.04;101955.75;5074779;28;20070;-47
2021/11/20 05:46:28;;;;;;;1.20;0.70;;;20.50;46.80;;;23.99;31.82;101962.63;5074659;28;20044;-46
2021/11/20 05:48:55;;;;;;;0.95;0.80;;;20.50;46.80;;;23.99;32.20;101958.19;5074747;28;20040;-47
2021/11/20 05:51:22;;;;;;;1.00;0.90;;;20.50;46.80;;;24.02;32.21;101955.34;5092686;28;20387;-46
2021/11/20 05:53:48;;;;;;;0.95;0.80;;;20.50;46.80;;;24.03;32.01;101941.00;5074461;28;20040;-43
2021/11/20 05:56:17;;;;;;;1.42;0.77;;;20.50;46.80;;;24.07;31.97;101949.69;5074356;28;20052;-43
2021/11/20 05:58:45;;;;;;;0.90;0.88;;;20.60;46.80;;;24.08;32.18;101938.06;5073963;28;20104;-44
2021/11/20 06:01:15;;;;;;;1.15;0.90;;;20.60;46.70;;;24.09;31.85;101945.16;5074867;28;20459;-48
2021/11/20 06:03:44;;;;;;;0.80;0.80;;;20.60;46.60;;;24.13;31.79;101946.69;5074943;28;20364;-43
2021/11/20 06:06:11;;;;;;;1.73;1.00;;;20.60;46.60;;;24.13;32.06;101927.13;5074302;28;20047;-44
2021/11/20 06:08:37;;;;;;;1.58;0.90;;;20.60;46.60;;;24.17;31.94;101944.69;5074157;28;20170;-45
2021/11/20 06:11:06;;;;;;;0.95;0.80;;;20.60;46.50;;;24.18;31.75;101938.41;5074915;28;20051;-43
2021/11/20 06:13:35;;;;;;;1.75;0.98;;;20.70;46.60;;;24.19;31.95;101940.09;5074736;28;20527;-48
2021/11/20 06:16:20;;;;;;;1.02;0.90;;;20.60;46.50;;;24.19;31.65;101949.00;5092838;28;20047;-44
2021/11/20 06:18:47;;;;;;;1.08;0.88;;;20.60;46.50;;;24.18;31.79;101947.25;5073335;28;20064;-46
2021/11/20 06:21:13;;;;;;;1.15;0.80;;;20.70;46.50;;;24.21;31.69;101943.56;5074115;28;20079;-45
2021/11/20 06:23:40;;;;;;;0.88;0.85;;;20.70;46.50;;;24.21;31.66;101948.91;5074159;28;20075;-47
2021/11/20 06:26:10;;;;;;;0.70;0.60;;;20.70;46.50;;;24.22;31.83;101951.50;5071718;28;20090;-43
2021/11/20 06:28:38;;;;;;;0.82;0.80;;;20.70;46.50;;;24.23;31.72;101949.69;5073884;28;20071;-43
2021/11/20 06:31:07;;;;;;;0.80;0.70;;;20.70;46.50;;;24.24;31.76;101954.09;5074059;28;20135;-48
2021/11/20 06:33:38;;;;;;;1.17;0.80;;;20.70;46.50;;;24.30;31.58;101964.38;5076332;28;20094;-44
2021/11/20 06:36:29;;;;;;;1.80;0.95;;;20.70;47.00;;;24.28;31.75;101960.97;5095509;28;20073;-45
2021/11/20 06:39:05;;;;;;;1.00;0.70;;;20.70;46.40;;;24.30;31.65;101960.88;5077181;28;20067;-45
2021/11/20 06:41:33;;;;;;;0.93;0.90;;;20.70;46.40;;;24.30;31.70;101966.22;5077376;28;20138;-45
2021/11/20 06:43:59;;;;;;;0.93;0.80;;;20.80;46.40;;;24.29;31.79;101960.00;5096101;28;20430;-45
2021/11/20 06:46:25;;;;;;;1.33;1.00;;;20.80;46.40;;;24.32;31.62;101972.31;5075496;28;20044;-46
2021/11/20 06:48:51;;;;;;;1.10;0.82;;;20.80;46.40;;;24.33;31.62;101974.91;5076684;28;20084;-45
2021/11/20 06:51:20;;;;;;;1.52;0.80;;;20.80;46.40;;;24.34;31.60;101979.31;5077230;28;20120;-45
2021/11/20 06:54:05;;;;;;;1.33;0.80;;;20.80;46.40;;;24.34;31.71;101973.97;5094192;28;20457;-42
2021/11/20 06:56:53;;;;;;;1.58;0.88;;;20.80;46.40;;;24.32;31.55;101970.50;5095806;28;20495;-42
2021/11/20 07:02:36;;;;;;;1.20;0.80;;;20.80;46.40;;;24.36;31.71;101965.88;5077190;28;20036;-47
2021/11/20 07:05:05;;;;;;;1.23;0.75;;;20.80;46.40;;;24.35;31.68;101964.97;5077031;28;20094;-45
2021/11/20 07:07:34;;;;;;;1.63;0.85;;;20.80;46.40;;;24.37;31.57;101967.56;5093881;28;20051;-43
2021/11/20 07:10:03;;;;;;;1.10;0.73;;;20.80;46.40;;;24.35;31.63;101950.75;5095249;28;20047;-47
2021/11/20 07:12:29;;;;;;;1.50;0.80;;;20.80;46.40;;;24.38;31.62;101959.47;5095682;28;20059;-42
2021/11/20 07:14:54;;;;;;;1.52;0.80;;;20.80;46.40;;;24.37;31.66;101963.09;5095384;28;20439;-46
2021/11/20 07:17:21;;;;;;;1.20;0.88;;;20.80;46.40;;;24.38;31.43;101954.09;5076658;28;20507;-46
2021/11/20 07:20:06;;;;;;;0.90;0.68;;;20.80;46.40;;;24.39;31.45;101952.28;5076781;28;20424;-43
2021/11/20 07:22:50;;;;;;;1.05;0.55;;;20.80;46.40;;;24.38;31.40;101951.44;5095403;28;20495;-42
2021/11/20 07:25:18;;;;;;;0.70;0.70;;;20.80;46.40;;;24.38;31.54;101956.78;5093545;28;20040;-45
2021/11/20 07:27:46;;;;;;;1.52;0.80;;;20.80;46.30;;;24.40;31.43;101956.69;5074789;28;20102;-44
2021/11/20 07:30:15;;;;;;;1.27;0.90;;;20.80;46.40;;;24.40;31.48;101956.69;5077145;28;20044;-47
2021/11/20 07:32:47;;;;;;;0.70;0.70;;;20.80;46.40;;;24.38;31.50;101945.25;5090380;28;20040;-44
2021/11/20 07:35:34;;;;;;;1.50;1.00;;;20.80;46.40;;;24.39;31.72;101949.63;5093970;28;20217;-45
2021/11/20 07:38:03;;;;;;;1.15;0.70;;;20.80;46.40;;;24.40;31.57;101941.50;5076244;28;20056;-44
2021/11/20 07:40:33;;;;;;;1.10;0.82;;;20.80;46.40;;;24.40;31.41;101935.31;5076910;28;20493;-45
2021/11/20 07:42:59;;;;;;;0.80;0.77;;;20.80;47.00;;;24.41;31.54;101929.88;5075980;28;20098;-46
2021/11/20 07:45:44;;;;;;;1.13;0.98;;;20.80;46.40;;;24.36;31.63;101926.63;5094318;28;20075;-43
2021/11/20 07:48:23;;;;;;;0.70;0.70;;;20.80;46.40;;;24.38;31.41;101930.06;5075250;28;20400;-45
2021/11/20 07:50:53;;;;;;;0.95;0.70;;;20.80;46.40;;;24.38;31.64;101930.06;5076851;28;20091;-43
2021/11/20 07:53:46;;;;;;;1.33;0.85;;;20.80;46.30;;;24.40;31.51;101919.28;5077214;28;20052;-42
2021/11/20 07:56:15;;;;;;;1.27;0.80;;;20.80;46.30;;;24.42;31.31;101922.69;5076197;28;20054;-45
2021/11/20 07:58:45;;;;;;;0.85;0.70;;;20.80;46.30;;;24.41;31.52;101924.53;5076061;28;20047;-44
2021/11/20 08:01:12;;;;;;;0.73;0.63;;;20.80;46.30;;;24.42;31.49;101923.59;5076119;28;20044;-46
2021/11/20 08:03:42;;;;;;;1.13;0.73;;;20.80;46.30;;;24.47;31.49;101923.28;5076284;28;20044;-44
2021/11/20 08:06:27;;;;;;;1.10;1.00;;;20.80;46.30;;;24.39;31.53;101913.06;5094673;28;20391;-44
2021/11/20 08:09:12;;;;;;;0.73;0.70;;;20.80;46.30;;;24.43;31.56;101913.75;5094435;28;20125;-44
2021/11/20 08:11:59;;;;;;;1.10;1.00;;;20.80;46.30;;;24.43;31.21;101908.41;5093418;28;20050;-45
2021/11/20 08:14:44;;;;;;;0.75;0.75;;;20.80;46.30;;;24.46;31.31;101916.25;5076060;28;20077;-44
2021/11/20 08:17:33;;;;;;;0.60;0.60;;;20.80;46.40;;;24.42;31.44;101910.22;5083528;28;20165;-45
2021/11/20 08:20:19;;;;;;;0.75;0.60;;;20.80;46.30;;;24.41;31.44;101900.47;5074294;28;20067;-44
2021/11/20 08:23:09;;;;;;;0.75;0.75;;;20.80;46.30;;;24.48;31.39;101914.31;5094412;28;20403;-50
2021/11/20 08:25:40;;;;;;;0.98;0.73;;;20.80;46.30;;;24.48;31.41;101894.75;5076262;28;20048;-46
2021/11/20 08:28:08;;;;;;;;;;;20.90;46.30;;;24.56;31.35;101897.88;5075769;28;20055;-47
2021/11/20 08:30:35;;;;;;;1.15;0.80;;;20.80;46.20;;;24.51;31.42;101891.91;5075714;28;19984;-46
2021/11/20 08:33:01;;;;;;;1.05;0.70;;;20.90;46.30;;;24.51;31.22;101898.09;5093709;28;20062;-45
2021/11/20 08:35:34;;;;;;;0.88;0.77;;;20.80;46.20;;;24.49;31.37;101883.97;5076209;28;20197;-48
2021/11/20 08:38:20;;;;;;;0.85;0.50;;;20.90;46.30;;;24.50;31.17;101885.69;5071852;28;20056;-47
2021/11/20 08:40:55;;;;;;;0.93;0.70;;;20.90;46.30;;;24.48;31.42;101884.91;5075544;28;20577;-48
2021/11/20 08:43:28;;;;;;;1.00;0.63;;;20.90;46.30;;;24.47;31.47;101888.53;5075457;28;20563;-47
2021/11/20 08:46:01;;;;;;;0.70;0.70;;;20.90;46.30;;;24.50;31.26;101891.03;5075443;28;20055;-48
2021/11/20 08:48:28;;;;;;;0.90;0.70;;;20.90;46.20;;;24.51;31.40;101889.22;5075245;28;20044;-49
2021/11/20 08:51:05;;;;;;;0.95;0.80;;;20.90;46.30;;;24.46;31.38;101878.81;5075615;28;20048;-46
2021/11/20 08:53:31;;;;;;;1.08;0.80;;;20.90;46.30;;;24.48;31.40;101882.25;5074283;28;20476;-50
2021/11/20 08:55:59;;;;;;;0.90;0.80;;;20.90;46.30;;;24.49;31.37;101878.63;5074895;28;20494;-48
2021/11/20 08:58:38;;;;;;;0.85;0.60;;;20.90;46.30;;;24.51;31.47;101879.38;5075047;28;20169;-43
2021/11/20 09:01:26;;;;;;;0.80;0.60;;;20.90;46.20;;;24.50;31.45;101874.13;5075142;28;20399;-49
2021/11/20 09:04:13;;;;;;;0.80;0.70;;;20.90;46.20;;;24.49;31.30;101865.25;5075497;28;20047;-44
2021/11/20 09:06:55;;;;;;;0.85;0.70;;;20.90;46.20;;;24.53;31.25;101866.78;5075593;28;20044;-49
2021/11/20 09:09:44;;;;;;;0.70;0.70;;;20.90;46.20;;;24.53;31.34;101869.44;5075080;28;20051;-45
2021/11/20 09:12:21;;;;;;;1.48;0.77;;;20.90;46.20;;;24.53;31.33;101866.78;5075106;28;20044;-43
2021/11/20 09:15:13;;;;;;;1.08;0.80;;;20.90;46.10;;;24.55;31.31;101862.22;5057294;28;20443;-49
2021/11/20 09:17:43;;;;;;;0.93;0.70;;;20.90;46.10;;;24.53;31.39;101861.44;5074103;28;20048;-42
2021/11/20 09:20:13;;;;;;;0.85;0.75;;;21.00;46.10;;;24.57;31.41;101864.81;5075389;28;20048;-46
2021/11/20 09:22:39;;;;;;;1.17;0.90;;;21.00;46.60;;;24.54;31.42;101860.50;5074871;28;20094;-44
2021/11/20 09:25:37;;;;;;;1.27;0.80;;;21.00;46.00;;;24.58;31.39;101862.03;5083802;28;20419;-43
2021/11/20 09:28:10;;;;;;;0.90;0.65;;;21.00;46.00;;;24.58;31.44;101859.38;5056409;28;20132;-47
2021/11/20 09:30:43;;;;;;;1.05;0.80;;;21.00;46.00;;;24.59;31.43;101857.53;5075186;28;20403;-47
2021/11/20 09:33:10;;;;;;;0.50;0.50;;;21.00;46.00;;;24.57;31.33;101843.41;5073757;28;20097;-44
2021/11/20 09:35:40;;;;;;;0.60;0.60;;;21.00;45.90;;;24.62;31.37;101852.00;5074713;28;20044;-48
2021/11/20 09:38:16;;;;;;;0.60;0.60;;;21.10;46.00;;;24.64;31.32;101854.59;5074685;28;20071;-45
2021/11/20 09:40:58;;;;;;;0.57;0.57;;;21.10;45.90;;;24.64;31.17;101857.25;5092768;28;20487;-43
2021/11/20 09:43:32;;;;;;;1.30;0.70;;;21.10;45.90;;;24.66;31.33;101860.69;5074697;28;20040;-48
2021/11/20 09:46:23;;;;;;;0.75;0.60;;;21.10;45.90;;;24.65;31.35;101859.00;5057993;28;20373;-46
2021/11/20 09:49:04;;;;;;;0.93;0.68;;;21.10;45.90;;;24.64;31.16;101850.13;5056415;28;20048;-46
2021/11/20 09:51:48;;;;;;;0.82;0.80;;;21.10;45.90;;;24.63;31.28;101850.22;5074318;28;20044;-48
2021/11/20 09:54:23;;;;;;;0.85;0.60;;;21.10;45.80;;;24.65;31.18;101849.16;5074840;28;20044;-48
2021/11/20 09:56:57;;;;;;;0.70;0.60;;;21.10;45.80;;;24.68;31.21;101848.97;5092703;28;20044;-43
2021/11/20 10:00:09;;;;;;;0.85;0.75;;;21.10;45.80;;;24.70;31.15;101846.19;5092619;28;20528;-43
2021/11/20 10:02:51;;;;;;;0.95;0.57;;;21.10;45.80;;;24.69;31.23;101826.63;5030462;28;20446;-48
2021/11/20 10:05:42;;;;;;;0.70;0.60;;;21.10;45.80;;;24.70;31.10;101831.00;5092937;28;20097;-46
2021/11/20 10:08:43;;;;;;;0.85;0.60;;;21.10;45.80;;;24.70;31.18;101822.13;5076703;28;20091;-43
2021/11/20 10:11:09;;;;;;;0.93;0.70;;;21.10;45.80;;;24.73;31.10;101825.47;5096064;28;20044;-43
2021/11/20 10:14:11;;;;;;;0.70;0.70;;;21.10;45.80;;;24.71;31.17;101823.84;5095987;28;20819;-47
2021/11/20 10:16:50;;;;;;;0.70;0.70;;;21.10;45.80;;;24.70;31.02;101820.28;5080355;28;20067;-44
2021/11/20 10:19:24;;;;;;;0.93;0.63;;;21.10;45.80;;;24.73;30.98;101822.78;5095938;28;20187;-43
2021/11/20 10:22:11;;;;;;;0.50;0.50;;;21.10;45.80;;;24.73;31.19;101819.25;5096049;28;20411;-48
2021/11/20 10:25:20;;;;;;;0.50;0.50;;;21.10;45.80;;;24.73;31.00;101812.09;5095916;28;20553;-45
2021/11/20 10:28:11;;;;;;;0.88;0.70;;;21.10;45.80;;;24.74;31.08;101818.28;5050910;28;20044;-44
2021/11/20 10:30:53;;;;;;;0.50;0.50;;;21.20;45.80;;;24.74;31.10;101803.13;5096153;28;20473;-44
2021/11/20 10:33:20;;;;;;;;;;;21.20;45.80;;;24.86;30.99;101814.84;5096166;28;20151;-47
2021/11/20 10:36:00;;;;;;;0.70;0.60;;;21.20;45.80;;;24.80;30.96;101809.88;5095732;28;19920;-46
2021/11/20 10:38:34;;;;;;;0.73;0.57;;;21.20;45.80;;;24.76;30.91;101809.22;5095784;28;20081;-46
2021/11/20 10:41:17;;;;;;;0.60;0.60;;;21.20;45.80;;;24.73;31.07;101793.38;5092093;28;20063;-49
2021/11/20 10:43:53;;;;;;;0.60;0.60;;;21.10;45.80;;;24.72;31.02;101798.81;5095532;28;20441;-46
2021/11/20 10:46:49;;;;;;;0.60;0.60;;;21.10;45.80;;;24.74;31.11;101797.78;5095481;28;20044;-48